Time;durP1;ratioP1;P1;durP2;ratioP2;P2;SDS_P1;SDS_P2;PMS_P1;PMS_P2;Temp;Humidity;BMP_temperature;BMP_pressure;BME280_temperature;BME280_humidity;BME280_pressure;Samples;Min_cycle;Max_cycle;Signal;HPM_P1;HPM_P2
2022/01/19 00:01:23;;;;;;;80.53;45.13;;;4.50;93.90;;;;;;4959762;28;20242;-68
2022/01/19 00:03:51;;;;;;;80.73;44.73;;;4.50;94.00;;;;;;4963395;28;20224;-68
2022/01/19 00:06:19;;;;;;;91.03;47.07;;;4.50;94.10;;;;;;4949216;28;20238;-68
2022/01/19 00:08:46;;;;;;;89.10;46.83;;;4.50;94.10;;;;;;4963784;28;20209;-68
2022/01/19 00:11:14;;;;;;;79.90;44.00;;;4.50;94.10;;;;;;4970479;28;20211;-68
2022/01/19 00:13:41;;;;;;;80.63;45.13;;;4.50;94.10;;;;;;4972328;28;20572;-68
2022/01/19 00:16:09;;;;;;;84.67;45.97;;;4.50;94.20;;;;;;4973694;28;20290;-68
2022/01/19 00:18:36;;;;;;;82.90;44.23;;;4.60;94.20;;;;;;4975395;28;20234;-68
2022/01/19 00:21:04;;;;;;;85.37;46.83;;;4.60;94.30;;;;;;4930012;28;20683;-68
2022/01/19 00:23:31;;;;;;;80.60;45.67;;;4.60;94.40;;;;;;4956412;28;20231;-68
2022/01/19 00:25:58;;;;;;;86.13;45.77;;;4.70;94.40;;;;;;4955749;28;20230;-68
2022/01/19 00:28:26;;;;;;;82.27;46.43;;;4.70;94.40;;;;;;4961124;28;20248;-68
2022/01/19 00:30:56;;;;;;;86.97;46.43;;;4.70;94.40;;;;;;4967792;28;20196;-68
2022/01/19 00:33:23;;;;;;;76.73;43.60;;;4.80;94.40;;;;;;4965511;28;20290;-68
2022/01/19 00:35:51;;;;;;;77.67;44.00;;;4.80;94.40;;;;;;4948818;28;20229;-68
2022/01/19 00:38:18;;;;;;;78.10;45.10;;;4.80;94.30;;;;;;4947361;28;20231;-68
2022/01/19 00:40:46;;;;;;;77.17;44.40;;;4.90;94.40;;;;;;4945082;28;20537;-68
2022/01/19 00:43:14;;;;;;;82.13;45.57;;;4.90;94.30;;;;;;4928188;28;20219;-68
2022/01/19 00:45:43;;;;;;;77.10;44.90;;;4.90;94.30;;;;;;4939604;28;20330;-68
2022/01/19 00:48:26;;;;;;;83.37;45.53;;;5.00;94.30;;;;;;4957430;28;20222;-68
2022/01/19 00:50:54;;;;;;;80.10;44.27;;;5.00;94.30;;;;;;4956928;28;20215;-68
2022/01/19 00:53:21;;;;;;;80.07;43.43;;;5.00;94.20;;;;;;4956168;28;20208;-68
2022/01/19 00:55:48;;;;;;;73.90;43.07;;;5.00;94.20;;;;;;4948302;28;20249;-68
2022/01/19 00:58:15;;;;;;;74.57;43.23;;;5.00;94.20;;;;;;4944687;28;20246;-68
2022/01/19 01:00:42;;;;;;;83.43;45.63;;;5.10;94.20;;;;;;4966928;28;20549;-68
2022/01/19 01:03:10;;;;;;;80.30;45.30;;;5.10;94.10;;;;;;4945596;28;20552;-68
2022/01/19 01:05:38;;;;;;;73.13;43.33;;;5.10;94.00;;;;;;4955966;28;20231;-68
2022/01/19 01:08:05;;;;;;;85.90;47.07;;;5.10;94.00;;;;;;4948991;28;20212;-68
2022/01/19 01:10:40;;;;;;;83.77;45.33;;;5.10;94.00;;;;;;4968721;28;20207;-68
2022/01/19 01:13:23;;;;;;;85.47;46.90;;;5.20;94.00;;;;;;4971818;28;20206;-68
2022/01/19 01:18:29;;;;;;;94.17;48.07;;;5.20;93.80;;;;;;4974279;28;20265;-68
2022/01/19 01:20:59;;;;;;;81.50;46.90;;;5.20;93.80;;;;;;4949456;28;20215;-68
2022/01/19 01:23:31;;;;;;;85.47;47.47;;;5.20;93.80;;;;;;4929921;28;20221;-68
2022/01/19 01:25:59;;;;;;;91.27;46.60;;;5.20;93.90;;;;;;4954843;28;20236;-68
2022/01/19 01:28:26;;;;;;;88.30;48.97;;;5.20;93.80;;;;;;4960844;28;20621;-68
2022/01/19 01:30:54;;;;;;;90.03;47.50;;;5.20;93.80;;;;;;4945905;28;20212;-68
2022/01/19 01:33:21;;;;;;;84.70;47.00;;;5.20;93.80;;;;;;4962065;28;20200;-68
2022/01/19 01:35:49;;;;;;;84.07;47.10;;;5.20;93.80;;;;;;4948357;28;20682;-68
2022/01/19 01:38:17;;;;;;;91.07;49.30;;;5.20;93.80;;;;;;4966783;28;20550;-68
2022/01/19 01:41:08;;;;;;;82.93;46.87;;;5.20;93.80;;;;;;4956658;28;20200;-68
2022/01/19 01:43:35;;;;;;;76.83;46.40;;;5.20;93.80;;;;;;4951659;28;20237;-68
2022/01/19 01:46:05;;;;;;;82.10;47.40;;;5.20;93.80;;;;;;4972586;28;20260;-68
2022/01/19 01:48:41;;;;;;;90.67;46.87;;;5.20;93.70;;;;;;4957693;28;20242;-68
2022/01/19 01:53:57;;;;;;;93.60;46.30;;;5.20;93.70;;;;;;4954791;28;20682;-68
2022/01/19 01:56:25;;;;;;;89.00;47.47;;;5.20;93.70;;;;;;4949043;29;20251;-68
2022/01/19 01:58:58;;;;;;;85.93;46.77;;;5.20;93.70;;;;;;4932229;29;20220;-68
2022/01/19 02:01:28;;;;;;;87.87;44.90;;;5.20;93.70;;;;;;4924856;29;20241;-68
2022/01/19 02:03:57;;;;;;;83.37;45.50;;;5.20;93.70;;;;;;4924877;29;20221;-68
2022/01/19 02:06:48;;;;;;;89.83;46.83;;;5.20;94.00;;;;;;4924850;29;20230;-68
2022/01/19 02:09:26;;;;;;;86.67;45.73;;;5.30;93.80;;;;;;4922137;29;20228;-68
2022/01/19 02:23:27;;;;;;;89.07;45.93;;;5.40;93.70;;;;;;4918937;29;20216;-69
2022/01/19 02:25:57;;;;;;;80.37;43.77;;;5.40;93.70;;;;;;4920228;29;20287;-68
2022/01/19 02:42:19;;;;;;;89.77;47.03;;;5.40;93.70;;;;;;4919605;29;20216;-68
2022/01/19 02:49:53;;;;;;;97.10;48.40;;;5.40;93.70;;;;;;4930314;29;20642;-68
2022/01/19 02:52:22;;;;;;;90.93;46.83;;;5.50;93.80;;;;;;4935911;29;20223;-68
2022/01/19 02:54:50;;;;;;;113.50;51.13;;;5.50;93.80;;;;;;4930133;29;20304;-68
2022/01/19 02:57:23;;;;;;;112.20;48.73;;;5.50;93.80;;;;;;4924615;29;20245;-68
2022/01/19 03:10:42;;;;;;;132.53;54.17;;;5.60;93.90;;;;;;4933070;29;20641;-68
2022/01/19 03:13:10;;;;;;;123.67;52.43;;;5.60;93.90;;;;;;4922266;29;20632;-68
2022/01/19 03:15:37;;;;;;;126.67;53.73;;;5.60;93.90;;;;;;4920665;29;20213;-68
2022/01/19 03:18:04;;;;;;;120.93;52.10;;;5.60;94.10;;;;;;4906292;29;20242;-68
2022/01/19 03:20:32;;;;;;;143.50;55.00;;;5.60;93.90;;;;;;4920474;29;20210;-68
2022/01/19 03:23:04;;;;;;;124.40;53.57;;;5.60;93.90;;;;;;4922115;29;20734;-68
2022/01/19 03:25:38;;;;;;;136.30;55.40;;;5.60;93.90;;;;;;4923508;29;20224;-68
2022/01/19 03:28:06;;;;;;;122.73;52.97;;;5.70;93.90;;;;;;4941109;29;20254;-68
2022/01/19 03:30:33;;;;;;;146.23;54.83;;;5.70;93.90;;;;;;4941577;29;20206;-68
2022/01/19 03:33:00;;;;;;;147.43;57.13;;;5.70;93.90;;;;;;4929245;29;20669;-68
2022/01/19 03:35:28;;;;;;;129.63;55.60;;;5.70;93.90;;;;;;4913966;29;20211;-68
2022/01/19 03:37:55;;;;;;;165.87;60.57;;;5.70;93.90;;;;;;4932518;29;20291;-68
2022/01/19 03:40:22;;;;;;;156.97;58.50;;;5.70;93.90;;;;;;4925159;29;20215;-68
2022/01/19 03:42:50;;;;;;;150.33;58.43;;;5.70;94.00;;;;;;4922940;29;20706;-68
2022/01/19 03:45:23;;;;;;;171.67;59.93;;;5.70;94.00;;;;;;4906716;29;20622;-68
2022/01/19 03:48:07;;;;;;;199.03;64.53;;;5.70;94.10;;;;;;4918936;29;20261;-68
2022/01/19 03:50:37;;;;;;;221.90;72.37;;;5.70;94.10;;;;;;4921381;29;20233;-68
2022/01/19 03:53:04;;;;;;;238.43;74.70;;;5.70;94.10;;;;;;4922020;29;20268;-68
2022/01/19 03:55:31;;;;;;;226.53;72.30;;;5.70;94.10;;;;;;4923306;29;20305;-68
2022/01/19 03:57:58;;;;;;;246.80;75.00;;;5.80;94.20;;;;;;4959007;28;20250;-68
2022/01/19 04:00:26;;;;;;;219.30;75.20;;;5.80;94.20;;;;;;4974196;28;20219;-68
2022/01/19 04:02:53;;;;;;;303.90;76.53;;;5.80;94.20;;;;;;4969493;28;20272;-68
2022/01/19 04:05:25;;;;;;;267.83;78.50;;;5.80;94.30;;;;;;4924737;29;20319;-68
2022/01/19 04:07:52;;;;;;;362.03;82.93;;;5.80;94.30;;;;;;4938468;29;20604;-68
2022/01/19 04:10:19;;;;;;;242.27;76.50;;;5.80;94.40;;;;;;4962061;28;20204;-68
2022/01/19 04:12:54;;;;;;;265.40;81.70;;;5.80;94.40;;;;;;4956572;28;20225;-68
2022/01/19 04:15:21;;;;;;;235.70;79.50;;;5.90;94.40;;;;;;4962464;28;20246;-68
2022/01/19 04:17:53;;;;;;;261.33;79.50;;;5.80;94.40;;;;;;4945307;28;20307;-68
2022/01/19 04:20:24;;;;;;;251.60;79.70;;;5.90;94.50;;;;;;4940327;29;20304;-68
2022/01/19 04:22:55;;;;;;;241.10;81.67;;;5.90;94.50;;;;;;4943058;29;20275;-68
2022/01/19 04:25:23;;;;;;;243.10;83.33;;;5.90;94.50;;;;;;4952954;28;20644;-68
2022/01/19 04:27:50;;;;;;;247.00;80.77;;;5.90;94.50;;;;;;4958147;28;20702;-68
2022/01/19 04:30:17;;;;;;;245.63;83.43;;;5.90;94.50;;;;;;4942290;28;20213;-68
2022/01/19 04:35:34;;;;;;;256.20;81.90;;;5.90;94.50;;;;;;4957425;28;20243;-68
2022/01/19 05:05:59;;;;;;;199.03;73.83;;;6.00;94.50;;;;;;4967508;28;20271;-68
2022/01/19 05:13:50;;;;;;;185.50;76.73;;;6.00;94.50;;;;;;4956354;28;20223;-68
2022/01/19 05:16:21;;;;;;;199.03;77.10;;;6.00;94.50;;;;;;4975817;28;20215;-68
2022/01/19 05:18:50;;;;;;;186.23;75.13;;;6.00;94.50;;;;;;4958607;28;20212;-68
2022/01/19 05:21:18;;;;;;;205.77;75.93;;;6.00;94.50;;;;;;4955291;28;20212;-68
2022/01/19 05:24:07;;;;;;;200.40;73.87;;;6.00;94.50;;;;;;4960552;28;20295;-68
2022/01/19 05:26:37;;;;;;;183.40;74.13;;;6.10;94.50;;;;;;4963795;28;20239;-68
2022/01/19 05:29:06;;;;;;;179.00;75.73;;;6.10;94.50;;;;;;4955145;29;20242;-68
2022/01/19 05:31:34;;;;;;;167.03;71.07;;;6.10;94.50;;;;;;4954692;29;20217;-68
2022/01/19 05:34:01;;;;;;;174.07;71.10;;;6.10;94.40;;;;;;4961113;28;20232;-68
2022/01/19 05:36:37;;;;;;;155.07;69.10;;;6.10;94.40;;;;;;4961262;28;20221;-68
2022/01/19 05:39:22;;;;;;;172.20;67.97;;;6.10;94.40;;;;;;4960664;28;20243;-68
2022/01/19 05:42:01;;;;;;;162.57;63.90;;;6.10;94.40;;;;;;4941606;28;20290;-68
2022/01/19 05:44:29;;;;;;;156.23;66.43;;;6.10;94.40;;;;;;4954788;28;20272;-68
2022/01/19 05:46:56;;;;;;;145.43;65.47;;;6.10;94.30;;;;;;4938612;29;20737;-68
2022/01/19 05:49:23;;;;;;;158.70;68.47;;;6.10;94.30;;;;;;4957182;29;20231;-68
2022/01/19 05:51:50;;;;;;;150.27;64.37;;;6.10;94.30;;;;;;4940979;29;20563;-68
2022/01/19 05:54:20;;;;;;;149.13;67.07;;;6.10;94.30;;;;;;4954473;28;20209;-68
2022/01/19 05:56:47;;;;;;;143.47;65.93;;;6.10;94.30;;;;;;4955707;28;20591;-68
2022/01/19 05:59:29;;;;;;;145.33;65.20;;;6.10;94.30;;;;;;4936029;28;20547;-68
2022/01/19 06:01:56;;;;;;;141.30;64.03;;;6.10;94.20;;;;;;4955505;28;20216;-68
2022/01/19 06:04:24;;;;;;;149.33;67.07;;;6.10;94.20;;;;;;4938758;29;20858;-68
2022/01/19 06:07:06;;;;;;;139.37;65.07;;;6.10;94.20;;;;;;4960977;28;20318;-68
2022/01/19 06:12:11;;;;;;;133.53;61.67;;;6.10;94.20;;;;;;4954217;29;20221;-68
2022/01/19 06:14:41;;;;;;;139.33;63.00;;;6.10;94.10;;;;;;4938523;29;20212;-68
2022/01/19 06:17:11;;;;;;;144.60;65.30;;;6.10;94.10;;;;;;4938230;29;20562;-68
2022/01/19 06:19:39;;;;;;;143.37;63.77;;;6.10;94.10;;;;;;4961859;28;20525;-68
2022/01/19 06:22:09;;;;;;;127.93;63.17;;;6.10;94.10;;;;;;4943372;28;20223;-68
2022/01/19 06:24:37;;;;;;;136.60;61.90;;;6.10;94.10;;;;;;4956248;28;20216;-68
2022/01/19 06:27:05;;;;;;;136.67;62.20;;;6.10;94.10;;;;;;4949708;28;20290;-68
2022/01/19 06:29:33;;;;;;;127.97;58.70;;;6.10;94.10;;;;;;4955020;28;20290;-68
2022/01/19 06:32:00;;;;;;;131.67;57.23;;;6.10;94.00;;;;;;4965909;28;20209;-68
2022/01/19 06:34:27;;;;;;;127.67;59.43;;;6.10;94.00;;;;;;4958703;28;20304;-68
2022/01/19 06:37:15;;;;;;;124.63;58.83;;;6.00;94.00;;;;;;4960160;28;20256;-68
2022/01/19 06:39:47;;;;;;;115.77;56.63;;;6.10;94.00;;;;;;4966534;28;20216;-68
2022/01/19 06:42:14;;;;;;;128.30;56.80;;;6.00;94.00;;;;;;4940185;28;20207;-68
2022/01/19 06:44:43;;;;;;;123.17;57.70;;;6.00;94.00;;;;;;4937873;28;20223;-68
2022/01/19 06:47:10;;;;;;;127.73;58.03;;;6.00;94.00;;;;;;4938613;28;20248;-68
2022/01/19 06:49:37;;;;;;;120.57;60.23;;;6.10;94.00;;;;;;4954922;28;20595;-68
2022/01/19 06:52:07;;;;;;;119.23;56.37;;;6.10;94.00;;;;;;4948504;28;20319;-68
2022/01/19 06:54:35;;;;;;;118.90;56.83;;;6.00;94.00;;;;;;4943149;28;20222;-68
2022/01/19 06:57:02;;;;;;;121.43;56.73;;;6.10;94.00;;;;;;4942863;28;20290;-68
2022/01/19 06:59:36;;;;;;;127.07;55.43;;;6.10;94.00;;;;;;4932082;28;20220;-68
2022/01/19 07:02:12;;;;;;;117.50;54.73;;;6.00;93.90;;;;;;4960551;28;20283;-68
2022/01/19 07:04:48;;;;;;;122.80;55.40;;;6.10;94.00;;;;;;4945078;28;20281;-68
2022/01/19 07:07:24;;;;;;;124.90;58.00;;;6.10;94.00;;;;;;4961075;28;20241;-68
2022/01/19 07:10:00;;;;;;;135.20;59.73;;;6.10;94.00;;;;;;4923074;29;20628;-67
2022/01/19 07:12:29;;;;;;;136.43;59.73;;;6.10;93.80;;;;;;4953052;29;20619;-67
2022/01/19 07:14:56;;;;;;;131.57;60.40;;;6.10;94.00;;;;;;4957568;28;20220;-67
2022/01/19 07:17:23;;;;;;;118.00;55.57;;;6.10;93.90;;;;;;4938367;28;20216;-67
2022/01/19 07:19:51;;;;;;;124.03;55.63;;;6.10;93.90;;;;;;4958677;28;20562;-67
2022/01/19 07:22:19;;;;;;;113.03;54.73;;;6.10;93.90;;;;;;4949143;28;20221;-67
2022/01/19 07:24:51;;;;;;;115.83;54.57;;;6.10;93.80;;;;;;4954791;28;20229;-67
2022/01/19 07:27:19;;;;;;;112.77;51.60;;;6.10;93.80;;;;;;4955096;28;20563;-67
2022/01/19 07:29:46;;;;;;;110.43;53.57;;;6.10;93.80;;;;;;4947792;28;20244;-67
2022/01/19 07:32:14;;;;;;;102.37;50.47;;;6.10;93.80;;;;;;4944431;28;20216;-67
2022/01/19 07:34:41;;;;;;;104.30;52.13;;;6.10;93.70;;;;;;4960965;28;20205;-67
2022/01/19 07:37:12;;;;;;;106.07;52.83;;;6.10;93.70;;;;;;4941940;28;20224;-67
2022/01/19 07:39:39;;;;;;;115.37;50.93;;;6.10;93.70;;;;;;4956454;28;20220;-67
2022/01/19 07:42:07;;;;;;;107.87;49.80;;;6.10;93.70;;;;;;4974514;28;20619;-67
2022/01/19 07:44:53;;;;;;;98.23;47.73;;;6.10;93.70;;;;;;4945504;28;20231;-67
2022/01/19 07:47:28;;;;;;;101.47;49.27;;;6.10;93.70;;;;;;4956006;28;20623;-67
2022/01/19 07:50:13;;;;;;;98.53;49.87;;;6.10;93.60;;;;;;4956745;29;20217;-67
2022/01/19 07:52:47;;;;;;;99.73;49.90;;;6.20;93.60;;;;;;4961227;28;20559;-67
2022/01/19 07:55:33;;;;;;;97.10;49.80;;;6.10;93.50;;;;;;4940342;29;20215;-67
2022/01/19 07:58:05;;;;;;;98.40;48.07;;;6.20;93.50;;;;;;4948731;29;20613;-67
2022/01/19 08:00:42;;;;;;;98.50;50.27;;;6.20;93.50;;;;;;4950221;28;20306;-67
2022/01/19 08:03:42;;;;;;;103.97;49.40;;;6.20;93.50;;;;;;4923772;28;20571;-67
2022/01/19 08:06:17;;;;;;;88.53;46.33;;;6.20;93.40;;;;;;4947457;28;20226;-67
2022/01/19 08:08:46;;;;;;;98.43;47.87;;;6.30;93.40;;;;;;4972780;28;20295;-67
2022/01/19 08:11:14;;;;;;;99.80;50.20;;;6.20;93.40;;;;;;4956543;28;20217;-67
2022/01/19 08:13:45;;;;;;;97.90;50.20;;;6.30;93.40;;;;;;4955505;28;20219;-67
2022/01/19 08:16:12;;;;;;;98.97;49.73;;;6.30;93.40;;;;;;4956628;28;20313;-67
2022/01/19 08:18:39;;;;;;;101.97;51.03;;;6.40;93.30;;;;;;4962013;28;20638;-67
2022/01/19 08:21:07;;;;;;;102.67;49.97;;;6.40;93.30;;;;;;4960739;28;20212;-68
2022/01/19 08:23:45;;;;;;;102.43;51.87;;;6.40;93.20;;;;;;4938735;28;20233;-68
2022/01/19 08:26:13;;;;;;;97.67;49.57;;;6.50;93.30;;;;;;4950686;28;20663;-68
2022/01/19 08:28:41;;;;;;;105.97;50.30;;;6.50;93.20;;;;;;4938502;28;20251;-68
2022/01/19 08:31:10;;;;;;;106.13;52.87;;;6.50;93.10;;;;;;4956745;28;20213;-68
2022/01/19 08:33:55;;;;;;;102.30;48.90;;;6.50;93.10;;;;;;4965120;28;20221;-68
2022/01/19 08:36:37;;;;;;;101.27;49.77;;;6.60;93.10;;;;;;4939635;29;20228;-68
2022/01/19 08:39:13;;;;;;;102.37;51.63;;;6.70;93.20;;;;;;4951627;29;20593;-68
2022/01/19 08:41:43;;;;;;;100.00;48.77;;;6.70;93.10;;;;;;4959960;28;20653;-68
2022/01/19 08:44:10;;;;;;;106.17;52.07;;;6.70;93.00;;;;;;4963881;28;20229;-68
2022/01/19 08:46:41;;;;;;;103.67;51.53;;;6.80;93.00;;;;;;4947218;28;20268;-68
2022/01/19 08:49:12;;;;;;;102.03;52.53;;;6.80;92.90;;;;;;4956543;28;20237;-68
2022/01/19 08:52:11;;;;;;;98.37;49.93;;;6.90;92.80;;;;;;4926098;28;20392;-68
2022/01/19 08:54:45;;;;;;;103.73;51.67;;;6.90;92.70;;;;;;4950924;28;20212;-68
2022/01/19 08:57:17;;;;;;;100.63;50.60;;;7.00;92.70;;;;;;4951172;28;20251;-68
2022/01/19 08:59:44;;;;;;;96.33;48.87;;;7.00;92.70;;;;;;4928697;29;20200;-68
2022/01/19 09:02:13;;;;;;;92.77;48.10;;;7.10;92.60;;;;;;4925918;29;20516;-68
2022/01/19 09:04:40;;;;;;;99.97;49.70;;;7.10;92.60;;;;;;4927649;29;20213;-67
2022/01/19 09:07:07;;;;;;;92.50;48.47;;;7.10;92.50;;;;;;4919606;29;20218;-67
2022/01/19 09:09:34;;;;;;;91.57;50.33;;;7.20;92.40;;;;;;4923944;29;20237;-67
2022/01/19 09:12:02;;;;;;;99.70;51.20;;;7.20;92.40;;;;;;4925165;29;20213;-67
2022/01/19 09:14:30;;;;;;;99.70;50.77;;;7.30;92.30;;;;;;4919940;29;20203;-67
2022/01/19 09:16:58;;;;;;;99.40;51.20;;;7.30;92.20;;;;;;4919395;29;20224;-68
2022/01/19 09:19:25;;;;;;;100.97;53.93;;;7.40;92.20;;;;;;4922480;29;20228;-67
2022/01/19 09:21:55;;;;;;;99.30;51.07;;;7.40;92.20;;;;;;4918721;29;20622;-67
2022/01/19 09:24:22;;;;;;;101.33;52.80;;;7.40;92.10;;;;;;4918267;29;20284;-67
2022/01/19 09:26:56;;;;;;;90.27;48.70;;;7.40;92.10;;;;;;4932641;29;20203;-67
2022/01/19 09:29:23;;;;;;;93.97;49.70;;;7.50;92.00;;;;;;4919174;29;20261;-67
2022/01/19 09:31:50;;;;;;;95.83;50.27;;;7.50;91.90;;;;;;4918816;29;20214;-67
2022/01/19 09:34:20;;;;;;;99.27;50.53;;;7.60;91.90;;;;;;4925685;29;20273;-67
2022/01/19 09:36:48;;;;;;;96.93;51.17;;;7.60;91.80;;;;;;4929441;29;20719;-68
2022/01/19 09:39:25;;;;;;;95.63;50.20;;;7.60;91.80;;;;;;4918972;29;20210;-67
2022/01/19 09:41:53;;;;;;;90.80;51.03;;;7.70;91.80;;;;;;4928751;29;20209;-67
2022/01/19 09:44:23;;;;;;;89.20;49.57;;;7.80;91.70;;;;;;4935769;29;20648;-67
2022/01/19 09:46:51;;;;;;;92.00;51.40;;;7.80;91.70;;;;;;4923549;29;20237;-67
2022/01/19 09:49:19;;;;;;;95.30;50.07;;;7.80;91.60;;;;;;4923884;29;20243;-67
2022/01/19 09:51:49;;;;;;;88.87;51.47;;;7.90;91.50;;;;;;4918334;29;20217;-67
2022/01/19 09:54:23;;;;;;;95.03;53.63;;;7.90;91.50;;;;;;4928315;29;20218;-67
2022/01/19 09:56:51;;;;;;;100.37;51.80;;;8.00;91.50;;;;;;4944420;28;20364;-67
2022/01/19 09:59:19;;;;;;;92.83;49.53;;;8.00;91.30;;;;;;4951223;28;20653;-67
2022/01/19 10:01:58;;;;;;;101.37;51.63;;;8.10;91.20;;;;;;4966334;28;20549;-67
2022/01/19 10:04:29;;;;;;;95.83;52.77;;;8.10;91.20;;;;;;4958481;28;20216;-69
2022/01/19 10:07:09;;;;;;;97.80;50.07;;;8.10;91.10;;;;;;4968141;28;20285;-68
2022/01/19 10:09:59;;;;;;;94.47;52.10;;;8.20;91.10;;;;;;4963438;28;20240;-68
2022/01/19 10:18:19;;;;;;;90.50;52.30;;;8.30;91.00;;;;;;4961744;28;20292;-68
2022/01/19 10:21:07;;;;;;;96.90;52.03;;;8.30;90.90;;;;;;4960487;28;20224;-68
2022/01/19 10:23:48;;;;;;;99.67;53.27;;;8.30;90.60;;;;;;4967438;28;20209;-68
2022/01/19 10:26:24;;;;;;;97.33;54.30;;;8.40;90.60;;;;;;4964931;28;20237;-68
2022/01/19 10:28:57;;;;;;;105.90;54.90;;;8.40;90.60;;;;;;4965882;28;20283;-68
2022/01/19 10:31:25;;;;;;;103.57;55.53;;;8.40;90.60;;;;;;4967529;28;20206;-68
2022/01/19 10:34:11;;;;;;;97.47;53.50;;;8.50;90.70;;;;;;4969955;28;20203;-68
2022/01/19 10:36:43;;;;;;;98.17;53.00;;;8.60;90.60;;;;;;4965362;28;20233;-68
2022/01/19 10:39:10;;;;;;;102.27;53.50;;;8.60;90.40;;;;;;4959076;28;20275;-68
2022/01/19 10:41:58;;;;;;;95.90;55.23;;;8.70;90.40;;;;;;4956820;28;20213;-68
2022/01/19 10:44:33;;;;;;;92.07;54.37;;;8.70;90.40;;;;;;4940143;28;20205;-68
2022/01/19 10:47:49;;;;;;;95.53;54.53;;;8.80;90.20;;;;;;4961479;28;20220;-68
2022/01/19 10:50:28;;;;;;;94.77;52.07;;;9.00;90.10;;;;;;4951524;28;20622;-68
2022/01/19 10:53:03;;;;;;;92.50;50.20;;;9.10;89.60;;;;;;4945139;28;20622;-68
2022/01/19 10:55:37;;;;;;;97.83;54.03;;;9.20;88.40;;;;;;4946718;28;20205;-68
2022/01/19 10:58:12;;;;;;;94.80;54.07;;;9.20;88.10;;;;;;4948147;28;20253;-67
2022/01/19 11:00:40;;;;;;;91.40;52.30;;;9.30;87.70;;;;;;4967049;28;20224;-68
2022/01/19 11:03:25;;;;;;;96.63;52.60;;;9.30;85.90;;;;;;4969140;28;20198;-68
2022/01/19 11:05:58;;;;;;;96.23;53.90;;;9.20;86.10;;;;;;4947803;28;20704;-68
2022/01/19 11:08:27;;;;;;;105.03;53.60;;;9.20;86.60;;;;;;4968442;28;20722;-68
2022/01/19 11:10:57;;;;;;;95.30;55.10;;;9.20;87.30;;;;;;4956900;28;20209;-68
2022/01/19 11:15:59;;;;;;;96.53;53.07;;;9.40;87.40;;;;;;4944127;28;20213;-68
2022/01/19 11:18:29;;;;;;;96.20;54.27;;;9.40;86.50;;;;;;4967146;28;20641;-68
2022/01/19 11:21:04;;;;;;;98.97;54.33;;;9.40;85.60;;;;;;4956702;28;20301;-68
2022/01/19 11:24:00;;;;;;;96.30;55.10;;;9.40;85.90;;;;;;4951963;28;20213;-68
2022/01/19 11:26:30;;;;;;;91.93;53.67;;;9.40;86.30;;;;;;4967979;28;20257;-68
2022/01/19 11:29:14;;;;;;;92.60;54.90;;;9.40;86.60;;;;;;4951959;28;20224;-68
2022/01/19 11:31:42;;;;;;;97.40;52.97;;;9.50;86.80;;;;;;4970884;28;20213;-68
2022/01/19 11:34:10;;;;;;;100.63;55.97;;;9.50;86.70;;;;;;4958723;29;20644;-68
2022/01/19 11:36:43;;;;;;;90.00;53.70;;;9.60;86.50;;;;;;4942208;29;20202;-67
2022/01/19 11:39:10;;;;;;;95.87;53.30;;;9.60;86.30;;;;;;4955595;29;20290;-68
2022/01/19 11:41:37;;;;;;;96.63;54.93;;;9.60;86.40;;;;;;4966311;28;20202;-68
2022/01/19 11:44:06;;;;;;;89.00;53.10;;;9.70;86.50;;;;;;4958233;29;20237;-67
2022/01/19 11:46:41;;;;;;;89.10;53.87;;;9.70;86.50;;;;;;4975196;28;20217;-68
2022/01/19 11:49:12;;;;;;;100.27;54.50;;;9.70;86.40;;;;;;4960050;28;20584;-68
2022/01/19 11:51:46;;;;;;;90.83;51.57;;;9.80;86.30;;;;;;4973468;28;20239;-68
2022/01/19 11:54:28;;;;;;;91.33;52.47;;;9.80;86.00;;;;;;4955030;28;20214;-68
2022/01/19 11:57:04;;;;;;;89.87;50.07;;;9.80;85.70;;;;;;4967924;28;20249;-68
2022/01/19 11:59:47;;;;;;;91.13;54.53;;;9.80;85.70;;;;;;4942952;28;20218;-68
2022/01/19 12:02:27;;;;;;;86.00;51.17;;;9.80;85.70;;;;;;4971460;28;20299;-68
2022/01/19 12:05:36;;;;;;;84.87;48.50;;;9.70;85.70;;;;;;4973518;28;20653;-68
2022/01/19 12:08:22;;;;;;;92.13;49.50;;;9.70;85.60;;;;;;4969095;28;20262;-68
2022/01/19 12:10:57;;;;;;;89.63;50.63;;;9.70;85.60;;;;;;4963451;28;20228;-68
2022/01/19 12:13:54;;;;;;;84.70;49.40;;;9.60;85.70;;;;;;4969900;28;20618;-68
2022/01/19 12:19:08;;;;;;;83.67;51.57;;;9.50;85.70;;;;;;4970294;28;20210;-68
2022/01/19 12:22:06;;;;;;;74.27;43.20;;;9.50;85.90;;;;;;4971382;28;20273;-68
2022/01/19 12:24:43;;;;;;;77.83;46.77;;;9.50;84.10;;;;;;4950930;28;20226;-68
2022/01/19 12:27:13;;;;;;;83.23;48.60;;;9.40;84.20;;;;;;4969127;28;20570;-68
2022/01/19 12:29:49;;;;;;;73.97;46.27;;;9.30;84.70;;;;;;4961098;29;20225;-68
2022/01/19 12:32:16;;;;;;;77.30;41.40;;;9.30;85.20;;;;;;4965282;28;20208;-68
2022/01/19 12:34:43;;;;;;;70.10;39.07;;;9.30;85.20;;;;;;4971781;28;20205;-68
2022/01/19 12:37:13;;;;;;;67.07;37.70;;;9.30;84.70;;;;;;4944806;28;20304;-68
2022/01/19 12:39:45;;;;;;;73.40;42.77;;;9.10;82.40;;;;;;4943675;28;20217;-68
2022/01/19 12:42:21;;;;;;;77.07;41.30;;;9.00;82.70;;;;;;4960609;28;20205;-68
2022/01/19 12:44:57;;;;;;;69.27;41.77;;;8.90;84.20;;;;;;4962259;28;20234;-68
2022/01/19 12:47:25;;;;;;;75.03;42.13;;;8.80;85.10;;;;;;4959460;29;20313;-68
2022/01/19 12:49:53;;;;;;;76.90;44.03;;;8.80;85.70;;;;;;4974407;28;20284;-68
2022/01/19 12:52:26;;;;;;;70.27;41.43;;;8.80;86.00;;;;;;4970182;28;20210;-68
2022/01/19 12:54:56;;;;;;;69.03;40.73;;;8.80;86.40;;;;;;4966484;28;20646;-68
2022/01/19 12:57:23;;;;;;;65.93;36.40;;;8.80;86.30;;;;;;4968333;28;20243;-68
2022/01/19 12:59:54;;;;;;;62.07;35.50;;;8.80;85.10;;;;;;4971354;28;20292;-68
2022/01/19 13:02:28;;;;;;;64.60;35.80;;;8.80;85.30;;;;;;4963669;28;20212;-68
2022/01/19 13:05:05;;;;;;;62.87;36.70;;;8.70;84.80;;;;;;4964981;28;20204;-68
2022/01/19 13:07:36;;;;;;;61.30;34.80;;;8.60;85.10;;;;;;4961234;28;20674;-68
2022/01/19 13:10:48;;;;;;;60.40;34.30;;;8.60;85.90;;;;;;4957439;28;20221;-68
2022/01/19 13:13:33;;;;;;;59.13;34.37;;;8.60;85.90;;;;;;4965873;28;20211;-68
2022/01/19 13:16:02;;;;;;;63.53;36.50;;;8.60;86.40;;;;;;4962967;28;20277;-68
2022/01/19 13:18:33;;;;;;;58.07;35.07;;;8.60;86.70;;;;;;4967274;28;20265;-68
2022/01/19 13:21:05;;;;;;;59.30;34.03;;;8.60;86.50;;;;;;4963955;28;20214;-68
2022/01/19 13:23:35;;;;;;;62.23;36.13;;;8.70;86.20;;;;;;4958067;28;20260;-68
2022/01/19 13:26:04;;;;;;;49.50;31.47;;;8.70;86.40;;;;;;4957070;28;20198;-68
2022/01/19 13:28:33;;;;;;;57.50;32.47;;;8.80;86.40;;;;;;4967823;28;20579;-68
2022/01/19 13:31:21;;;;;;;63.10;34.50;;;8.80;86.30;;;;;;4954274;28;20223;-68
2022/01/19 13:33:56;;;;;;;62.00;36.60;;;8.90;86.20;;;;;;4965099;28;20201;-69
2022/01/19 13:36:33;;;;;;;62.87;34.40;;;8.90;85.90;;;;;;4941549;28;20661;-68
2022/01/19 13:39:02;;;;;;;59.10;33.60;;;9.00;85.70;;;;;;4961254;28;20613;-68
2022/01/19 13:41:30;;;;;;;56.97;33.97;;;9.00;85.60;;;;;;4956530;28;20656;-68
2022/01/19 13:44:07;;;;;;;60.73;35.67;;;9.00;85.40;;;;;;4955824;28;20198;-68
2022/01/19 13:46:38;;;;;;;56.40;35.30;;;9.10;85.40;;;;;;4944104;28;20229;-68
2022/01/19 13:49:06;;;;;;;56.40;34.37;;;9.10;85.20;;;;;;4961518;28;20220;-68
2022/01/19 13:51:40;;;;;;;62.80;36.17;;;9.10;84.80;;;;;;4964228;28;20259;-68
2022/01/19 13:54:07;;;;;;;65.17;37.57;;;9.20;84.60;;;;;;4964250;28;20651;-68
2022/01/19 13:56:41;;;;;;;68.23;37.50;;;9.20;84.40;;;;;;4966273;28;20260;-68
2022/01/19 13:59:17;;;;;;;62.90;36.03;;;9.30;84.30;;;;;;4963599;28;20547;-68
2022/01/19 14:01:56;;;;;;;65.77;38.23;;;9.30;84.10;;;;;;4947776;28;20213;-68
2022/01/19 14:04:26;;;;;;;63.07;38.53;;;9.40;83.90;;;;;;4959445;28;20273;-68
2022/01/19 14:07:10;;;;;;;64.80;37.93;;;9.50;83.70;;;;;;4951585;28;20218;-68
2022/01/19 14:09:37;;;;;;;63.27;36.87;;;9.50;83.40;;;;;;4939482;29;20454;-68
2022/01/19 14:12:08;;;;;;;62.03;38.30;;;9.50;83.10;;;;;;4958113;28;20234;-68
2022/01/19 14:14:37;;;;;;;56.90;35.80;;;9.50;82.80;;;;;;4956515;28;20210;-68
2022/01/19 14:17:07;;;;;;;68.90;37.97;;;9.50;82.80;;;;;;4961635;28;20646;-68
2022/01/19 14:19:49;;;;;;;58.87;37.53;;;9.50;82.80;;;;;;4959792;28;20223;-68
2022/01/19 14:22:19;;;;;;;56.37;34.33;;;9.50;82.80;;;;;;4955971;29;20278;-68
2022/01/19 14:24:47;;;;;;;63.97;35.93;;;9.50;82.90;;;;;;4938903;29;20215;-68
2022/01/19 14:28:11;;;;;;;64.13;37.13;;;9.50;83.50;;;;;;4962100;28;20276;-68
2022/01/19 14:30:41;;;;;;;63.13;36.17;;;9.50;82.80;;;;;;4943775;28;20224;-68
2022/01/19 14:33:28;;;;;;;63.87;38.97;;;9.50;83.00;;;;;;4960203;28;20216;-68
2022/01/19 14:35:57;;;;;;;66.70;37.47;;;9.40;82.90;;;;;;4962826;28;20233;-68